Accueil
METAR-TAF:

METAR-TAF

Aéroports :

Wittering, Angleterre

latitude: 52-37N, longitude: 000-28W, altitude: 84 m

Observation

Le bulletin a été fait il y a 1 heure et 14 minutes, à 02:50 UTC
Vent 8 kt de nord-est
Température -2°C
Humidité 86%
Pression 1027 hPa
Visibilité 10 km ou plus

METAR: EGXT 250250Z AUTO 05008KT 9999 NCD M02/M04 Q1027

Heure: 04:04 (04:04 UTC)

Prévision

Le bulletin a été fait il y a 17 heures et 12 minutes, à 10:52 UTC
Prévision valable du 24 à 12 UTC au 24 à 17 UTC
Vent 14 kt de est
Visibilité 10 km ou plus
pas de nuages en-dessous de 1500 mètres et pas de cumulonimbus.

TAF: EGXT 241052Z 2412/2417 09014KT CAVOK

Observations et prévisions météorologiques de plus de 4000 aéroports (messages METAR et TAF).

Les stations disponibles sont représentées par des disques jaunes et rouges sur la carte.

Passer la souris dessus pour voir le nom de la station.

Cliquer dessus pour voir les observations et prévisions météorologiques.

Pour changer de carte: cliquez sur les boutons verts avec une croix noire pour zoomer, sur le bouton vert avec un tiret pour effectuer un zoom arrière, ou sur les flèches vertes pour les cartes adjacentes.


METAR-TAF: